Time;durP1;ratioP1;P1;durP2;ratioP2;P2;SDS_P1;SDS_P2;PMS_P1;PMS_P2;Temp;Humidity;BMP_temperature;BMP_pressure;BME280_temperature;BME280_humidity;BME280_pressure;Samples;Min_cycle;Max_cycle;Signal;HPM_P1;HPM_P2
2021/12/30 00:00:45;;;;;;;;;;;;;;;;;;2106553;28;1814;-76
2021/12/30 00:01:46;;;;;;;;;;;;;;;;;;2109820;28;2087;-75
2021/12/30 00:02:49;;;;;;;;;;;;;;;;;;2109074;28;1619;-74
2021/12/30 00:03:50;;;;;;;;;;;;;;;;;;2115029;28;936;-75
2021/12/30 00:04:52;;;;;;;;;;;;;;;;;;2115065;28;826;-77
2021/12/30 00:05:53;;;;;;;;;;;;;;;;;;2114805;28;937;-78
2021/12/30 00:06:54;;;;;;;;;;;;;;;;;;2114850;28;1881;-78
2021/12/30 00:07:55;;;;;;;;;;;;;;;;;;2114955;28;893;-78
2021/12/30 00:08:56;;;;;;;;;;;;;;;;;;2115190;28;923;-77
2021/12/30 00:09:57;;;;;;;;;;;;;;;;;;2115178;28;786;-76
2021/12/30 00:11:02;;;;;;;;;;;;;;;;;;2114306;28;897;-77
2021/12/30 00:12:04;;;;;;;;;;;;;;;;;;2113610;28;947;-74
2021/12/30 00:13:05;;;;;;;;;;;;;;;;;;2106745;28;1482;-77
2021/12/30 00:14:06;;;;;;;;;;;;;;;;;;2106434;28;921;-74
2021/12/30 00:15:09;;;;;;;;;;;;;;;;;;2107771;28;1606;-76
2021/12/30 00:16:10;;;;;;;;;;;;;;;;;;2114840;28;1905;-77
2021/12/30 00:17:12;;;;;;;;;;;;;;;;;;2115093;28;886;-77
2021/12/30 00:18:16;;;;;;;;;;;;;;;;;;2114899;28;929;-76
2021/12/30 00:19:17;;;;;;;;;;;;;;;;;;2113462;28;1677;-74
2021/12/30 00:20:20;;;;;;;;;;;;;;;;;;2107316;28;1727;-76
2021/12/30 00:21:24;;;;;;;;;;;;;;;;;;2113970;28;1795;-76
2021/12/30 00:22:26;;;;;;;;;;;;;;;;;;2114811;28;1301;-77
2021/12/30 00:23:30;;;;;;;;;;;;;;;;;;2114834;28;1368;-75
2021/12/30 00:24:33;;;;;;;;;;;;;;;;;;2115070;28;842;-77
2021/12/30 00:25:40;;;;;;;;;;;;;;;;;;2115052;28;2079;-76
2021/12/30 00:26:44;;;;;;;;;;;;;;;;;;2115043;28;878;-75
2021/12/30 00:27:45;;;;;;;;;;;;;;;;;;2114207;28;1189;-77
2021/12/30 00:28:47;;;;;;;;;;;;;;;;;;2114229;28;1298;-75
2021/12/30 00:29:49;;;;;;;;;;;;;;;;;;2108513;28;1035;-74
2021/12/30 00:30:52;;;;;;;;;;;;;;;;;;2106485;28;1146;-75
2021/12/30 00:31:53;;;;;;;;;;;;;;;;;;2106752;28;866;-77
2021/12/30 00:32:54;;;;;;;;;;;;;;;;;;2106465;28;815;-76
2021/12/30 00:33:56;;;;;;;;;;;;;;;;;;2106751;28;993;-75
2021/12/30 00:34:58;;;;;;;;;;;;;;;;;;2106532;28;827;-76
2021/12/30 00:36:02;;;;;;;;;;;;;;;;;;2105810;28;1909;-75
2021/12/30 00:37:03;;;;;;;;;;;;;;;;;;2107051;28;1559;-77
2021/12/30 00:38:05;;;;;;;;;;;;;;;;;;2115142;28;897;-75
2021/12/30 00:39:06;;;;;;;;;;;;;;;;;;2114635;28;1398;-77
2021/12/30 00:40:08;;;;;;;;;;;;;;;;;;2114973;28;882;-75
2021/12/30 00:41:10;;;;;;;;;;;;;;;;;;2115704;28;932;-77
2021/12/30 00:42:12;;;;;;;;;;;;;;;;;;2116698;28;1292;-76
2021/12/30 00:43:12;;;;;;;;;;;;;;;;;;2116481;28;881;-78
2021/12/30 00:44:15;;;;;;;;;;;;;;;;;;2116664;28;927;-77
2021/12/30 00:45:15;;;;;;;;;;;;;;;;;;2116600;28;878;-77
2021/12/30 00:46:17;;;;;;;;;;;;;;;;;;2113639;28;1877;-76
2021/12/30 00:47:18;;;;;;;;;;;;;;;;;;2107919;28;1463;-76
2021/12/30 00:48:19;;;;;;;;;;;;;;;;;;2112013;28;1668;-75
2021/12/30 00:49:22;;;;;;;;;;;;;;;;;;2108165;28;1498;-75
2021/12/30 00:50:23;;;;;;;;;;;;;;;;;;2116660;28;953;-78
2021/12/30 00:51:25;;;;;;;;;;;;;;;;;;2123196;27;1113;-78
2021/12/30 00:52:26;;;;;;;;;;;;;;;;;;2125061;27;870;-75
2021/12/30 00:53:27;;;;;;;;;;;;;;;;;;2121376;27;1399;-75
2021/12/30 00:54:28;;;;;;;;;;;;;;;;;;2116239;28;1301;-76
2021/12/30 00:55:31;;;;;;;;;;;;;;;;;;2113940;28;1682;-76
2021/12/30 00:56:32;;;;;;;;;;;;;;;;;;2115040;28;1905;-78
2021/12/30 00:57:33;;;;;;;;;;;;;;;;;;2115841;28;878;-74
2021/12/30 00:58:34;;;;;;;;;;;;;;;;;;2116302;28;974;-76
2021/12/30 00:59:35;;;;;;;;;;;;;;;;;;2115795;28;1546;-76
2021/12/30 01:00:38;;;;;;;;;;;;;;;;;;2116456;28;1607;-77
2021/12/30 01:01:41;;;;;;;;;;;;;;;;;;2115894;28;1542;-76
2021/12/30 01:02:41;;;;;;;;;;;;;;;;;;2116407;28;1073;-77
2021/12/30 01:03:44;;;;;;;;;;;;;;;;;;2116437;28;892;-77
2021/12/30 01:04:46;;;;;;;;;;;;;;;;;;2115942;28;1511;-76
2021/12/30 01:05:49;;;;;;;;;;;;;;;;;;2112498;28;1502;-78
2021/12/30 01:06:52;;;;;;;;;;;;;;;;;;2118131;27;1836;-77
2021/12/30 01:07:53;;;;;;;;;;;;;;;;;;2115857;28;1667;-76
2021/12/30 01:08:56;;;;;;;;;;;;;;;;;;2116475;28;870;-76
2021/12/30 01:09:56;;;;;;;;;;;;;;;;;;2115753;28;1656;-76
2021/12/30 01:11:01;;;;;;;;;;;;;;;;;;2115818;28;1499;-77
2021/12/30 01:12:05;;;;;;;;;;;;;;;;;;2112021;28;1219;-74
2021/12/30 01:13:10;;;;;;;;;;;;;;;;;;2116055;28;1127;-75
2021/12/30 01:14:17;;;;;;;;;;;;;;;;;;2115377;28;1652;-77
2021/12/30 01:15:21;;;;;;;;;;;;;;;;;;2115215;28;1558;-75
2021/12/30 01:16:24;;;;;;;;;;;;;;;;;;2114951;28;1951;-74
2021/12/30 01:17:39;;;;;;;;;;;;;;;;;;2115387;28;1068;-75
2021/12/30 01:18:53;;;;;;;;;;;;;;;;;;2114152;28;1649;-75
2021/12/30 01:19:56;;;;;;;;;;;;;;;;;;2115822;28;885;-78
2021/12/30 01:20:57;;;;;;;;;;;;;;;;;;2114546;28;1607;-76
2021/12/30 01:21:58;;;;;;;;;;;;;;;;;;2115764;28;869;-75
2021/12/30 01:22:59;;;;;;;;;;;;;;;;;;2115315;28;1598;-75
2021/12/30 01:24:01;;;;;;;;;;;;;;;;;;2115991;28;933;-74
2021/12/30 01:25:02;;;;;;;;;;;;;;;;;;2115399;28;1591;-74
2021/12/30 01:26:05;;;;;;;;;;;;;;;;;;2116025;28;984;-77
2021/12/30 01:27:05;;;;;;;;;;;;;;;;;;2115199;28;1657;-75
2021/12/30 01:28:07;;;;;;;;;;;;;;;;;;2115571;28;830;-76
2021/12/30 01:29:08;;;;;;;;;;;;;;;;;;2115051;28;985;-75
2021/12/30 01:30:10;;;;;;;;;;;;;;;;;;2115640;28;893;-76
2021/12/30 01:31:12;;;;;;;;;;;;;;;;;;2114710;28;1760;-75
2021/12/30 01:32:13;;;;;;;;;;;;;;;;;;2115667;28;1153;-74
2021/12/30 01:33:14;;;;;;;;;;;;;;;;;;2115598;28;961;-75
2021/12/30 01:34:15;;;;;;;;;;;;;;;;;;2116019;28;901;-75
2021/12/30 01:35:23;;;;;;;;;;;;;;;;;;2114913;28;1996;-76
2021/12/30 01:36:26;;;;;;;;;;;;;;;;;;2109336;28;1910;-74
2021/12/30 01:37:28;;;;;;;;;;;;;;;;;;2113989;28;1628;-74
2021/12/30 01:38:30;;;;;;;;;;;;;;;;;;2115349;28;1253;-76
2021/12/30 01:39:33;;;;;;;;;;;;;;;;;;2115101;28;1488;-77
2021/12/30 01:40:35;;;;;;;;;;;;;;;;;;2114249;28;1383;-76
2021/12/30 01:41:40;;;;;;;;;;;;;;;;;;2115206;28;1254;-76
2021/12/30 01:42:41;;;;;;;;;;;;;;;;;;2111906;28;1816;-77
2021/12/30 01:43:45;;;;;;;;;;;;;;;;;;2115080;28;1501;-76
2021/12/30 01:44:46;;;;;;;;;;;;;;;;;;2114454;28;1578;-76
2021/12/30 01:45:48;;;;;;;;;;;;;;;;;;2105513;28;1449;-74
2021/12/30 01:46:49;;;;;;;;;;;;;;;;;;2114639;28;1368;-74
2021/12/30 01:47:53;;;;;;;;;;;;;;;;;;2114959;28;1681;-75
2021/12/30 01:48:54;;;;;;;;;;;;;;;;;;2115211;28;1241;-75
2021/12/30 01:49:55;;;;;;;;;;;;;;;;;;2114836;28;1630;-73
2021/12/30 01:50:57;;;;;;;;;;;;;;;;;;2114675;28;1253;-77
2021/12/30 01:51:59;;;;;;;;;;;;;;;;;;2115057;28;1194;-75
2021/12/30 01:53:00;;;;;;;;;;;;;;;;;;2114914;28;1292;-77
2021/12/30 01:54:02;;;;;;;;;;;;;;;;;;2115326;28;1214;-74
2021/12/30 01:55:03;;;;;;;;;;;;;;;;;;2115404;28;1277;-75
2021/12/30 01:56:05;;;;;;;;;;;;;;;;;;2114068;28;1397;-76
2021/12/30 01:57:07;;;;;;;;;;;;;;;;;;2115323;28;1893;-76
2021/12/30 01:58:09;;;;;;;;;;;;;;;;;;2115320;28;1368;-74
2021/12/30 01:59:10;;;;;;;;;;;;;;;;;;2115202;28;1218;-74
2021/12/30 02:00:13;;;;;;;;;;;;;;;;;;2115058;28;1296;-78
2021/12/30 02:01:16;;;;;;;;;;;;;;;;;;2114950;28;1635;-78
2021/12/30 02:02:19;;;;;;;;;;;;;;;;;;2114692;28;1254;-76
2021/12/30 02:03:21;;;;;;;;;;;;;;;;;;2114942;28;1302;-75
2021/12/30 02:04:22;;;;;;;;;;;;;;;;;;2114518;28;1579;-75
2021/12/30 02:05:23;;;;;;;;;;;;;;;;;;2112503;28;1524;-77
2021/12/30 02:06:27;;;;;;;;;;;;;;;;;;2114899;28;1508;-75
2021/12/30 02:07:27;;;;;;;;;;;;;;;;;;2115034;28;1483;-75
2021/12/30 02:08:29;;;;;;;;;;;;;;;;;;2114668;28;1437;-75
2021/12/30 02:09:30;;;;;;;;;;;;;;;;;;2115039;28;1598;-75
2021/12/30 02:10:32;;;;;;;;;;;;;;;;;;2114575;28;1423;-76
2021/12/30 02:11:32;;;;;;;;;;;;;;;;;;2115040;28;1642;-76
2021/12/30 02:12:36;;;;;;;;;;;;;;;;;;2115100;28;1320;-77
2021/12/30 02:13:36;;;;;;;;;;;;;;;;;;2115803;28;918;-75
2021/12/30 02:14:38;;;;;;;;;;;;;;;;;;2115491;28;964;-74
2021/12/30 02:15:39;;;;;;;;;;;;;;;;;;2115235;28;1994;-75
2021/12/30 02:16:40;;;;;;;;;;;;;;;;;;2115559;28;1961;-77
2021/12/30 02:17:41;;;;;;;;;;;;;;;;;;2115692;28;830;-75
2021/12/30 02:18:43;;;;;;;;;;;;;;;;;;2115355;28;1075;-75
2021/12/30 02:19:44;;;;;;;;;;;;;;;;;;2115038;28;1634;-78
2021/12/30 02:20:50;;;;;;;;;;;;;;;;;;2114952;28;1503;-75
2021/12/30 02:21:52;;;;;;;;;;;;;;;;;;2115616;28;1554;-78
2021/12/30 02:22:53;;;;;;;;;;;;;;;;;;2115390;28;1660;-77
2021/12/30 02:23:54;;;;;;;;;;;;;;;;;;2115679;28;925;-77
2021/12/30 02:24:57;;;;;;;;;;;;;;;;;;2115393;28;963;-76
2021/12/30 02:25:59;;;;;;;;;;;;;;;;;;2115199;28;1586;-76
2021/12/30 02:27:00;;;;;;;;;;;;;;;;;;2115342;28;779;-75
2021/12/30 02:28:04;;;;;;;;;;;;;;;;;;2115209;28;1592;-76
2021/12/30 02:29:09;;;;;;;;;;;;;;;;;;2115225;28;826;-78
2021/12/30 02:30:10;;;;;;;;;;;;;;;;;;2115492;28;944;-74
2021/12/30 02:31:12;;;;;;;;;;;;;;;;;;2114769;28;1782;-77
2021/12/30 02:32:13;;;;;;;;;;;;;;;;;;2115561;28;877;-77
2021/12/30 02:33:15;;;;;;;;;;;;;;;;;;2115296;28;806;-77
2021/12/30 02:34:21;;;;;;;;;;;;;;;;;;2115766;28;1083;-77
2021/12/30 02:35:21;;;;;;;;;;;;;;;;;;2115452;28;917;-78
2021/12/30 02:36:32;;;;;;;;;;;;;;;;;;2114758;28;1459;-75
2021/12/30 02:37:40;;;;;;;;;;;;;;;;;;2115350;28;1017;-76
2021/12/30 02:38:45;;;;;;;;;;;;;;;;;;2114780;28;1716;-78
2021/12/30 02:39:53;;;;;;;;;;;;;;;;;;2115274;28;1214;-77
2021/12/30 02:40:55;;;;;;;;;;;;;;;;;;2114660;28;1766;-76
2021/12/30 02:41:56;;;;;;;;;;;;;;;;;;2115064;28;1491;-78
2021/12/30 02:42:59;;;;;;;;;;;;;;;;;;2114327;28;1695;-76
2021/12/30 02:44:00;;;;;;;;;;;;;;;;;;2106306;28;1186;-75
2021/12/30 02:45:02;;;;;;;;;;;;;;;;;;2114399;28;898;-75
2021/12/30 02:46:04;;;;;;;;;;;;;;;;;;2114782;28;1548;-74
2021/12/30 02:47:05;;;;;;;;;;;;;;;;;;2115247;28;846;-75
2021/12/30 02:48:12;;;;;;;;;;;;;;;;;;2115302;28;1020;-77
2021/12/30 02:49:13;;;;;;;;;;;;;;;;;;2115282;28;799;-75
2021/12/30 02:50:24;;;;;;;;;;;;;;;;;;2115274;28;853;-77
2021/12/30 02:51:27;;;;;;;;;;;;;;;;;;2114786;28;1593;-73
2021/12/30 02:52:29;;;;;;;;;;;;;;;;;;2115169;28;1186;-78
2021/12/30 02:53:30;;;;;;;;;;;;;;;;;;2114824;28;1491;-77
2021/12/30 02:54:31;;;;;;;;;;;;;;;;;;2115025;28;1251;-77
2021/12/30 02:55:32;;;;;;;;;;;;;;;;;;2114978;28;1472;-77
2021/12/30 02:56:36;;;;;;;;;;;;;;;;;;2114926;28;890;-76
2021/12/30 02:57:36;;;;;;;;;;;;;;;;;;2113929;28;1909;-78
2021/12/30 02:58:38;;;;;;;;;;;;;;;;;;2114264;28;898;-77
2021/12/30 02:59:40;;;;;;;;;;;;;;;;;;2115264;28;933;-78
2021/12/30 03:00:45;;;;;;;;;;;;;;;;;;2114831;28;1676;-78
2021/12/30 03:01:46;;;;;;;;;;;;;;;;;;2114527;28;1524;-78
2021/12/30 03:02:48;;;;;;;;;;;;;;;;;;2115065;28;877;-75
2021/12/30 03:03:49;;;;;;;;;;;;;;;;;;2114499;28;1492;-75
2021/12/30 03:04:50;;;;;;;;;;;;;;;;;;2114842;28;1639;-78
2021/12/30 03:05:56;;;;;;;;;;;;;;;;;;2114873;28;1424;-75
2021/12/30 03:06:59;;;;;;;;;;;;;;;;;;2111467;28;1488;-75
2021/12/30 03:08:00;;;;;;;;;;;;;;;;;;2115234;28;1021;-75
2021/12/30 03:09:01;;;;;;;;;;;;;;;;;;2114405;28;1677;-77
2021/12/30 03:10:04;;;;;;;;;;;;;;;;;;2115174;28;760;-75
2021/12/30 03:11:05;;;;;;;;;;;;;;;;;;2114410;28;1833;-75
2021/12/30 03:12:09;;;;;;;;;;;;;;;;;;2115278;28;1106;-77
2021/12/30 03:13:13;;;;;;;;;;;;;;;;;;2114650;27;1579;-75
2021/12/30 03:14:15;;;;;;;;;;;;;;;;;;2115253;28;1677;-77
2021/12/30 03:15:15;;;;;;;;;;;;;;;;;;2115176;28;908;-77
2021/12/30 03:16:18;;;;;;;;;;;;;;;;;;2114916;28;1714;-77
2021/12/30 03:17:19;;;;;;;;;;;;;;;;;;2115107;28;1910;-75
2021/12/30 03:18:20;;;;;;;;;;;;;;;;;;2115230;28;980;-76
2021/12/30 03:19:21;;;;;;;;;;;;;;;;;;2114852;28;1511;-74
2021/12/30 03:20:24;;;;;;;;;;;;;;;;;;2115191;28;1494;-77
2021/12/30 03:21:25;;;;;;;;;;;;;;;;;;2114659;28;1523;-76
2021/12/30 03:22:29;;;;;;;;;;;;;;;;;;2114530;28;1330;-75
2021/12/30 03:23:29;;;;;;;;;;;;;;;;;;2114153;28;1681;-76
2021/12/30 03:24:35;;;;;;;;;;;;;;;;;;2115163;28;1101;-78
2021/12/30 03:25:36;;;;;;;;;;;;;;;;;;2114847;28;1677;-76
2021/12/30 03:26:41;;;;;;;;;;;;;;;;;;2114652;28;1330;-78
2021/12/30 03:27:45;;;;;;;;;;;;;;;;;;2113013;28;1995;-74
2021/12/30 03:28:46;;;;;;;;;;;;;;;;;;2113951;28;1337;-75
2021/12/30 03:29:49;;;;;;;;;;;;;;;;;;2114500;28;1265;-75
2021/12/30 03:30:58;;;;;;;;;;;;;;;;;;2114627;28;1356;-76
2021/12/30 03:32:02;;;;;;;;;;;;;;;;;;2114016;28;1349;-79
2021/12/30 03:33:07;;;;;;;;;;;;;;;;;;2114777;28;1349;-78
2021/12/30 03:34:08;;;;;;;;;;;;;;;;;;2112003;28;1271;-77
2021/12/30 03:35:13;;;;;;;;;;;;;;;;;;2114386;28;1377;-78
2021/12/30 03:36:21;;;;;;;;;;;;;;;;;;2113476;28;1143;-75
2021/12/30 03:37:26;;;;;;;;;;;;;;;;;;2113918;28;1918;-79
2021/12/30 03:38:31;;;;;;;;;;;;;;;;;;2112121;28;1208;-76
2021/12/30 03:39:40;;;;;;;;;;;;;;;;;;2115137;27;1384;-79
2021/12/30 03:40:44;;;;;;;;;;;;;;;;;;2114430;28;1538;-76
2021/12/30 03:41:49;;;;;;;;;;;;;;;;;;2113011;28;1456;-79
2021/12/30 03:42:51;;;;;;;;;;;;;;;;;;2111489;28;1278;-76
2021/12/30 03:43:57;;;;;;;;;;;;;;;;;;2113711;28;1739;-75
2021/12/30 03:45:02;;;;;;;;;;;;;;;;;;2104723;28;1509;-77
2021/12/30 03:46:08;;;;;;;;;;;;;;;;;;2105900;28;1357;-79
2021/12/30 03:47:14;;;;;;;;;;;;;;;;;;2111048;28;1428;-76
2021/12/30 03:48:16;;;;;;;;;;;;;;;;;;2114862;28;1376;-78
2021/12/30 03:49:26;;;;;;;;;;;;;;;;;;2114325;28;1347;-78
2021/12/30 03:50:43;;;;;;;;;;;;;;;;;;2114719;28;1397;-78
2021/12/30 03:51:45;;;;;;;;;;;;;;;;;;2114369;28;1479;-77
2021/12/30 03:52:47;;;;;;;;;;;;;;;;;;2114684;28;1574;-75
2021/12/30 03:53:51;;;;;;;;;;;;;;;;;;2114637;28;1593;-78
2021/12/30 03:54:52;;;;;;;;;;;;;;;;;;2114343;28;1562;-74
2021/12/30 03:55:53;;;;;;;;;;;;;;;;;;2113949;28;1553;-76
2021/12/30 03:56:55;;;;;;;;;;;;;;;;;;2113697;28;1597;-77
2021/12/30 03:57:56;;;;;;;;;;;;;;;;;;2114216;28;1926;-74
2021/12/30 03:58:58;;;;;;;;;;;;;;;;;;2113619;28;1749;-75
2021/12/30 03:59:58;;;;;;;;;;;;;;;;;;2114098;28;1539;-76
2021/12/30 04:01:00;;;;;;;;;;;;;;;;;;2113892;28;1518;-78
2021/12/30 04:02:00;;;;;;;;;;;;;;;;;;2114178;28;981;-76
2021/12/30 04:03:02;;;;;;;;;;;;;;;;;;2113984;28;893;-76
2021/12/30 04:04:03;;;;;;;;;;;;;;;;;;2114347;28;889;-76
2021/12/30 04:05:05;;;;;;;;;;;;;;;;;;2113653;28;1893;-76
2021/12/30 04:06:06;;;;;;;;;;;;;;;;;;2114368;28;1021;-75
2021/12/30 04:07:08;;;;;;;;;;;;;;;;;;2113570;28;1615;-75
2021/12/30 04:08:11;;;;;;;;;;;;;;;;;;2114611;28;1076;-77
2021/12/30 04:09:14;;;;;;;;;;;;;;;;;;2114391;28;981;-77
2021/12/30 04:10:15;;;;;;;;;;;;;;;;;;2114507;28;1758;-74
2021/12/30 04:11:16;;;;;;;;;;;;;;;;;;2114291;28;1817;-76
2021/12/30 04:12:18;;;;;;;;;;;;;;;;;;2115071;28;1659;-77
2021/12/30 04:13:19;;;;;;;;;;;;;;;;;;2114495;28;1693;-74
2021/12/30 04:14:20;;;;;;;;;;;;;;;;;;2114856;28;1432;-77
2021/12/30 04:15:22;;;;;;;;;;;;;;;;;;2114660;28;1637;-77
2021/12/30 04:16:22;;;;;;;;;;;;;;;;;;2115781;28;1707;-75
2021/12/30 04:17:24;;;;;;;;;;;;;;;;;;2116657;28;1974;-75
2021/12/30 04:18:25;;;;;;;;;;;;;;;;;;2115938;28;1468;-74
2021/12/30 04:19:27;;;;;;;;;;;;;;;;;;2116084;28;740;-76
2021/12/30 04:20:27;;;;;;;;;;;;;;;;;;2116718;28;1158;-76
2021/12/30 04:21:29;;;;;;;;;;;;;;;;;;2116537;28;1457;-76
2021/12/30 04:22:29;;;;;;;;;;;;;;;;;;2116657;28;826;-74
2021/12/30 04:23:31;;;;;;;;;;;;;;;;;;2115882;28;1009;-74
2021/12/30 04:24:33;;;;;;;;;;;;;;;;;;2116071;28;961;-74
2021/12/30 04:25:35;;;;;;;;;;;;;;;;;;2116697;28;929;-74
2021/12/30 04:26:35;;;;;;;;;;;;;;;;;;2116615;28;1135;-75
2021/12/30 04:27:37;;;;;;;;;;;;;;;;;;2116734;28;1509;-74
2021/12/30 04:28:37;;;;;;;;;;;;;;;;;;2116384;28;1098;-75
2021/12/30 04:29:39;;;;;;;;;;;;;;;;;;2116739;28;913;-75
2021/12/30 04:30:40;;;;;;;;;;;;;;;;;;2116515;28;874;-77
2021/12/30 04:31:41;;;;;;;;;;;;;;;;;;2116319;28;1898;-74
2021/12/30 04:32:42;;;;;;;;;;;;;;;;;;2115753;28;1377;-74
2021/12/30 04:33:43;;;;;;;;;;;;;;;;;;2115418;28;1757;-74
2021/12/30 04:34:44;;;;;;;;;;;;;;;;;;2115815;27;1647;-74
2021/12/30 04:35:46;;;;;;;;;;;;;;;;;;2115800;28;1512;-74
2021/12/30 04:36:48;;;;;;;;;;;;;;;;;;2116373;28;858;-75
2021/12/30 04:37:49;;;;;;;;;;;;;;;;;;2115580;28;1910;-75
2021/12/30 04:38:50;;;;;;;;;;;;;;;;;;2115751;28;728;-76
2021/12/30 04:39:52;;;;;;;;;;;;;;;;;;2116195;28;1708;-76
2021/12/30 04:40:54;;;;;;;;;;;;;;;;;;2116442;28;835;-76
2021/12/30 04:41:58;;;;;;;;;;;;;;;;;;2115928;28;1853;-75
2021/12/30 04:42:59;;;;;;;;;;;;;;;;;;2116132;28;1499;-74
2021/12/30 04:44:00;;;;;;;;;;;;;;;;;;2116689;28;938;-75
2021/12/30 04:45:01;;;;;;;;;;;;;;;;;;2115975;28;1757;-77
2021/12/30 04:46:03;;;;;;;;;;;;;;;;;;2116339;28;1629;-77
2021/12/30 04:47:05;;;;;;;;;;;;;;;;;;2116039;27;1599;-76
2021/12/30 04:48:05;;;;;;;;;;;;;;;;;;2116253;28;1981;-75
2021/12/30 04:49:07;;;;;;;;;;;;;;;;;;2116322;28;892;-77
2021/12/30 04:50:08;;;;;;;;;;;;;;;;;;2116569;28;1180;-77
2021/12/30 04:51:10;;;;;;;;;;;;;;;;;;2115989;28;1930;-75
2021/12/30 04:52:10;;;;;;;;;;;;;;;;;;2116418;28;876;-75
2021/12/30 04:53:12;;;;;;;;;;;;;;;;;;2116100;28;1835;-74
2021/12/30 04:54:13;;;;;;;;;;;;;;;;;;2116081;28;1079;-78
2021/12/30 04:55:16;;;;;;;;;;;;;;;;;;2116238;28;1056;-76
2021/12/30 04:56:18;;;;;;;;;;;;;;;;;;2116112;28;1802;-74
2021/12/30 04:57:19;;;;;;;;;;;;;;;;;;2116373;28;933;-74
2021/12/30 04:58:20;;;;;;;;;;;;;;;;;;2116167;28;1902;-75
2021/12/30 04:59:22;;;;;;;;;;;;;;;;;;2116457;27;1411;-76
2021/12/30 05:00:22;;;;;;;;;;;;;;;;;;2116288;28;969;-76
2021/12/30 05:01:24;;;;;;;;;;;;;;;;;;2115642;28;1002;-76
2021/12/30 05:02:31;;;;;;;;;;;;;;;;;;2115656;28;1120;-76
2021/12/30 05:03:33;;;;;;;;;;;;;;;;;;2116351;28;945;-77
2021/12/30 05:04:33;;;;;;;;;;;;;;;;;;2116373;28;964;-75
2021/12/30 05:05:37;;;;;;;;;;;;;;;;;;2116301;28;952;-75
2021/12/30 05:06:39;;;;;;;;;;;;;;;;;;2116175;28;922;-77
2021/12/30 05:07:39;;;;;;;;;;;;;;;;;;2116327;28;933;-75
2021/12/30 05:08:41;;;;;;;;;;;;;;;;;;2116266;28;768;-77
2021/12/30 05:09:41;;;;;;;;;;;;;;;;;;2116196;28;905;-77
2021/12/30 05:10:44;;;;;;;;;;;;;;;;;;2115990;28;1103;-74
2021/12/30 05:11:45;;;;;;;;;;;;;;;;;;2115416;28;1337;-74
2021/12/30 05:12:47;;;;;;;;;;;;;;;;;;2115788;28;944;-74
2021/12/30 05:13:48;;;;;;;;;;;;;;;;;;2116244;28;957;-74
2021/12/30 05:14:49;;;;;;;;;;;;;;;;;;2116196;28;1026;-74
2021/12/30 05:15:50;;;;;;;;;;;;;;;;;;2116125;28;838;-74
2021/12/30 05:16:52;;;;;;;;;;;;;;;;;;2116290;28;909;-74
2021/12/30 05:17:54;;;;;;;;;;;;;;;;;;2116181;27;1910;-74
2021/12/30 05:18:56;;;;;;;;;;;;;;;;;;2115508;28;870;-74
2021/12/30 05:19:58;;;;;;;;;;;;;;;;;;2107433;28;1448;-74
2021/12/30 05:20:59;;;;;;;;;;;;;;;;;;2115517;28;803;-74
2021/12/30 05:22:01;;;;;;;;;;;;;;;;;;2116265;28;823;-74
2021/12/30 05:23:02;;;;;;;;;;;;;;;;;;2115992;28;937;-74
2021/12/30 05:24:04;;;;;;;;;;;;;;;;;;2116114;27;802;-74
2021/12/30 05:25:05;;;;;;;;;;;;;;;;;;2116032;28;863;-74
2021/12/30 05:26:09;;;;;;;;;;;;;;;;;;2116181;27;1293;-74
2021/12/30 05:27:10;;;;;;;;;;;;;;;;;;2114779;28;1525;-74
2021/12/30 05:28:11;;;;;;;;;;;;;;;;;;2115462;28;1083;-74
2021/12/30 05:29:13;;;;;;;;;;;;;;;;;;2115998;28;802;-74
2021/12/30 05:30:15;;;;;;;;;;;;;;;;;;2116204;28;716;-74
2021/12/30 05:31:15;;;;;;;;;;;;;;;;;;2116015;28;1722;-74
2021/12/30 05:32:17;;;;;;;;;;;;;;;;;;2116121;28;1036;-74
2021/12/30 05:33:17;;;;;;;;;;;;;;;;;;2116231;28;1079;-74
2021/12/30 05:34:19;;;;;;;;;;;;;;;;;;2116093;28;929;-74
2021/12/30 05:35:20;;;;;;;;;;;;;;;;;;2116150;28;775;-74
2021/12/30 05:36:21;;;;;;;;;;;;;;;;;;2115858;28;1064;-74
2021/12/30 05:37:22;;;;;;;;;;;;;;;;;;2116242;28;843;-74
2021/12/30 05:38:23;;;;;;;;;;;;;;;;;;2115939;28;1969;-75
2021/12/30 05:39:24;;;;;;;;;;;;;;;;;;2115927;28;1073;-74
2021/12/30 05:40:26;;;;;;;;;;;;;;;;;;2115596;28;930;-74
2021/12/30 05:41:29;;;;;;;;;;;;;;;;;;2115863;28;917;-74
2021/12/30 05:42:30;;;;;;;;;;;;;;;;;;2115896;27;953;-74
2021/12/30 05:43:31;;;;;;;;;;;;;;;;;;2115973;28;956;-74
2021/12/30 05:44:32;;;;;;;;;;;;;;;;;;2115936;28;1076;-74
2021/12/30 05:45:33;;;;;;;;;;;;;;;;;;2116067;28;945;-74
2021/12/30 05:46:34;;;;;;;;;;;;;;;;;;2116042;28;810;-74
2021/12/30 05:47:38;;;;;;;;;;;;;;;;;;2115849;28;1132;-74
2021/12/30 05:48:40;;;;;;;;;;;;;;;;;;2115921;28;772;-74
2021/12/30 05:49:40;;;;;;;;;;;;;;;;;;2116074;28;818;-74
2021/12/30 05:50:42;;;;;;;;;;;;;;;;;;2115761;28;1064;-74
2021/12/30 05:51:42;;;;;;;;;;;;;;;;;;2115841;28;909;-73
2021/12/30 05:52:44;;;;;;;;;;;;;;;;;;2115764;28;948;-74
2021/12/30 05:53:44;;;;;;;;;;;;;;;;;;2115978;28;1007;-74
2021/12/30 05:54:46;;;;;;;;;;;;;;;;;;2115736;28;1205;-74
2021/12/30 05:55:47;;;;;;;;;;;;;;;;;;2115747;28;915;-73
2021/12/30 05:56:49;;;;;;;;;;;;;;;;;;2115719;28;1035;-72
2021/12/30 05:57:52;;;;;;;;;;;;;;;;;;2115830;28;1971;-73
2021/12/30 05:58:52;;;;;;;;;;;;;;;;;;2115801;28;907;-73
2021/12/30 05:59:54;;;;;;;;;;;;;;;;;;2115712;28;865;-73
2021/12/30 06:00:56;;;;;;;;;;;;;;;;;;2115799;28;956;-73
2021/12/30 06:01:57;;;;;;;;;;;;;;;;;;2115889;28;933;-73
2021/12/30 06:02:58;;;;;;;;;;;;;;;;;;2115869;28;889;-73
2021/12/30 06:04:00;;;;;;;;;;;;;;;;;;2115814;28;892;-72
2021/12/30 06:05:00;;;;;;;;;;;;;;;;;;2115891;28;980;-73
2021/12/30 06:06:01;;;;;;;;;;;;;;;;;;2115779;27;886;-73
2021/12/30 06:07:02;;;;;;;;;;;;;;;;;;2115776;28;1067;-73
2021/12/30 06:08:04;;;;;;;;;;;;;;;;;;2115677;28;1133;-73
2021/12/30 06:09:05;;;;;;;;;;;;;;;;;;2115791;28;896;-73
2021/12/30 06:10:07;;;;;;;;;;;;;;;;;;2115942;28;896;-72
2021/12/30 06:11:07;;;;;;;;;;;;;;;;;;2115787;28;964;-73
2021/12/30 06:12:10;;;;;;;;;;;;;;;;;;2115740;28;950;-73
2021/12/30 06:13:11;;;;;;;;;;;;;;;;;;2115662;28;974;-72
2021/12/30 06:14:13;;;;;;;;;;;;;;;;;;2115797;28;1131;-73
2021/12/30 06:15:13;;;;;;;;;;;;;;;;;;2115726;28;1220;-73
2021/12/30 06:16:15;;;;;;;;;;;;;;;;;;2115588;28;822;-73
2021/12/30 06:17:16;;;;;;;;;;;;;;;;;;2114947;28;850;-73
2021/12/30 06:18:17;;;;;;;;;;;;;;;;;;2114933;28;1902;-73
2021/12/30 06:19:18;;;;;;;;;;;;;;;;;;2115768;28;786;-73
2021/12/30 06:20:19;;;;;;;;;;;;;;;;;;2114761;28;1303;-73
2021/12/30 06:21:20;;;;;;;;;;;;;;;;;;2115301;28;937;-72
2021/12/30 06:22:21;;;;;;;;;;;;;;;;;;2115496;28;1194;-73
2021/12/30 06:23:22;;;;;;;;;;;;;;;;;;2115813;28;949;-73
2021/12/30 06:24:24;;;;;;;;;;;;;;;;;;2115544;28;1101;-73
2021/12/30 06:25:24;;;;;;;;;;;;;;;;;;2115804;28;977;-73
2021/12/30 06:26:26;;;;;;;;;;;;;;;;;;2115541;28;901;-73
2021/12/30 06:27:28;;;;;;;;;;;;;;;;;;2115731;28;882;-73
2021/12/30 06:28:29;;;;;;;;;;;;;;;;;;2115669;28;897;-73
2021/12/30 06:29:30;;;;;;;;;;;;;;;;;;2115629;28;990;-73
2021/12/30 06:30:31;;;;;;;;;;;;;;;;;;2115627;28;944;-73
2021/12/30 06:31:32;;;;;;;;;;;;;;;;;;2115690;28;857;-73
2021/12/30 06:32:34;;;;;;;;;;;;;;;;;;2115549;28;1150;-73
2021/12/30 06:33:34;;;;;;;;;;;;;;;;;;2115646;28;1285;-72
2021/12/30 06:34:36;;;;;;;;;;;;;;;;;;2115509;28;888;-73
2021/12/30 06:35:36;;;;;;;;;;;;;;;;;;2115557;28;857;-73
2021/12/30 06:36:38;;;;;;;;;;;;;;;;;;2115453;28;1056;-73
2021/12/30 06:37:39;;;;;;;;;;;;;;;;;;2115583;28;1015;-73
2021/12/30 06:38:40;;;;;;;;;;;;;;;;;;2114609;28;1997;-73
2021/12/30 06:39:41;;;;;;;;;;;;;;;;;;2115552;28;945;-73
2021/12/30 06:40:42;;;;;;;;;;;;;;;;;;2115417;28;878;-72
2021/12/30 06:41:43;;;;;;;;;;;;;;;;;;2115453;28;910;-72
2021/12/30 06:42:46;;;;;;;;;;;;;;;;;;2115589;28;916;-73
2021/12/30 06:43:46;;;;;;;;;;;;;;;;;;2115619;28;869;-72
2021/12/30 06:44:48;;;;;;;;;;;;;;;;;;2115399;28;814;-73
2021/12/30 06:45:50;;;;;;;;;;;;;;;;;;2115367;28;903;-73
2021/12/30 06:46:56;;;;;;;;;;;;;;;;;;2115400;28;1249;-73
2021/12/30 06:47:59;;;;;;;;;;;;;;;;;;2114786;28;985;-73
2021/12/30 06:49:00;;;;;;;;;;;;;;;;;;2114836;28;810;-72
2021/12/30 06:50:02;;;;;;;;;;;;;;;;;;2115385;28;1601;-73
2021/12/30 06:51:04;;;;;;;;;;;;;;;;;;2115262;28;1067;-73
2021/12/30 06:52:06;;;;;;;;;;;;;;;;;;2115570;28;790;-73
2021/12/30 06:53:08;;;;;;;;;;;;;;;;;;2115369;28;932;-73
2021/12/30 06:54:09;;;;;;;;;;;;;;;;;;2114114;28;1328;-72
2021/12/30 06:55:11;;;;;;;;;;;;;;;;;;2114406;28;1211;-73
2021/12/30 06:56:12;;;;;;;;;;;;;;;;;;2114926;28;1304;-73
2021/12/30 06:57:14;;;;;;;;;;;;;;;;;;2115225;28;1281;-73
2021/12/30 06:58:16;;;;;;;;;;;;;;;;;;2115041;28;1974;-73
2021/12/30 06:59:17;;;;;;;;;;;;;;;;;;2114709;28;1286;-73
2021/12/30 07:00:18;;;;;;;;;;;;;;;;;;2114493;28;1288;-73
2021/12/30 07:01:20;;;;;;;;;;;;;;;;;;2114811;28;1332;-72
2021/12/30 07:02:20;;;;;;;;;;;;;;;;;;2114676;28;1328;-73
2021/12/30 07:03:22;;;;;;;;;;;;;;;;;;2114188;28;1373;-73
2021/12/30 07:04:22;;;;;;;;;;;;;;;;;;2111314;28;1333;-73
2021/12/30 07:05:24;;;;;;;;;;;;;;;;;;2114772;28;1288;-73
2021/12/30 07:06:26;;;;;;;;;;;;;;;;;;2114539;28;1360;-73
2021/12/30 07:07:26;;;;;;;;;;;;;;;;;;2114804;28;1386;-73
2021/12/30 07:08:28;;;;;;;;;;;;;;;;;;2114589;28;1372;-73
2021/12/30 07:09:29;;;;;;;;;;;;;;;;;;2114765;28;1301;-73
2021/12/30 07:10:30;;;;;;;;;;;;;;;;;;2114511;28;1325;-73
2021/12/30 07:11:31;;;;;;;;;;;;;;;;;;2114775;28;1320;-73
2021/12/30 07:12:36;;;;;;;;;;;;;;;;;;2114524;28;1363;-73
2021/12/30 07:13:38;;;;;;;;;;;;;;;;;;2114639;28;1309;-73